createdAt,value
2018-12-31T00:05:01.082Z,8.80
2018-12-31T00:07:42.838Z,8.87
2018-12-31T00:10:24.550Z,7.27
2018-12-31T00:13:06.689Z,8.17
2018-12-31T00:15:48.822Z,7.27
2018-12-31T00:18:31.028Z,9.47
2018-12-31T00:21:12.670Z,7.23
2018-12-31T00:23:54.631Z,8.17
2018-12-31T00:26:35.055Z,7.93
2018-12-31T00:29:24.403Z,4.63
2018-12-31T00:32:08.349Z,6.07
2018-12-31T00:34:50.577Z,6.30
2018-12-31T00:37:32.442Z,6.17
2018-12-31T00:40:18.739Z,5.80
2018-12-31T00:42:59.220Z,7.53
2018-12-31T00:45:41.381Z,6.83
2018-12-31T00:48:23.371Z,5.23
2018-12-31T00:51:05.455Z,5.90
2018-12-31T00:53:47.404Z,6.80
2018-12-31T00:56:29.345Z,7.17
2018-12-31T00:59:11.406Z,6.47
2018-12-31T01:01:53.126Z,6.30
2018-12-31T01:04:35.010Z,6.53
2018-12-31T01:07:16.860Z,5.23
2018-12-31T01:09:58.992Z,6.77
2018-12-31T01:12:41.350Z,3.47
2018-12-31T01:15:23.834Z,2.80
2018-12-31T01:18:05.698Z,1.70
2018-12-31T01:20:47.990Z,1.23
2018-12-31T01:23:30.158Z,2.07
2018-12-31T01:26:11.799Z,3.13
2018-12-31T01:28:54.071Z,1.77
2018-12-31T01:31:36.091Z,2.43
2018-12-31T01:34:18.251Z,2.53
2018-12-31T01:37:00.122Z,1.50
2018-12-31T01:39:42.201Z,1.30
2018-12-31T01:42:24.093Z,0.90
2018-12-31T01:45:05.954Z,1.30
2018-12-31T01:47:48.186Z,1.30
2018-12-31T01:50:29.879Z,1.17
2018-12-31T01:53:11.550Z,0.60
2018-12-31T01:55:53.307Z,1.07
2018-12-31T01:58:35.423Z,1.23
2018-12-31T02:01:17.459Z,0.73
2018-12-31T02:03:59.695Z,0.87
2018-12-31T02:06:41.790Z,0.90
2018-12-31T02:09:23.926Z,0.90
2018-12-31T02:12:06.275Z,1.30
2018-12-31T02:14:47.959Z,0.80
2018-12-31T02:17:18.330Z,0.43
2018-12-31T02:20:09.138Z,2.20
2018-12-31T02:22:52.658Z,1.90
2018-12-31T02:25:34.562Z,1.73
2018-12-31T02:28:16.623Z,1.90
2018-12-31T02:30:58.260Z,2.30
2018-12-31T02:33:39.967Z,1.57
2018-12-31T02:36:22.059Z,0.60
2018-12-31T02:39:04.704Z,0.60
2018-12-31T02:41:46.393Z,1.47
2018-12-31T02:44:28.032Z,1.30
2018-12-31T02:47:09.806Z,1.17
2018-12-31T02:49:52.338Z,0.80
2018-12-31T02:52:34.509Z,1.20
2018-12-31T02:55:16.475Z,1.30
2018-12-31T02:57:58.475Z,1.27
2018-12-31T03:00:40.679Z,1.13
2018-12-31T03:03:22.546Z,4.10
2018-12-31T03:06:05.050Z,1.10
2018-12-31T03:08:47.043Z,1.50
2018-12-31T03:11:29.168Z,1.30
2018-12-31T03:14:11.109Z,2.40
2018-12-31T03:16:53.470Z,1.17
2018-12-31T03:19:35.706Z,1.20
2018-12-31T03:22:17.879Z,0.77
2018-12-31T03:24:59.831Z,0.40
2018-12-31T03:27:41.678Z,0.10
2018-12-31T03:30:23.716Z,0.37
2018-12-31T03:33:05.461Z,0.40
2018-12-31T03:35:47.710Z,1.30
2018-12-31T03:38:29.508Z,0.70
2018-12-31T03:41:11.667Z,0.90
2018-12-31T03:43:53.558Z,0.93
2018-12-31T03:46:34.110Z,1.03
2018-12-31T03:52:05.664Z,1.10
2018-12-31T03:54:49.469Z,0.50
2018-12-31T03:57:31.534Z,0.40
2018-12-31T04:00:13.466Z,0.43
2018-12-31T04:02:56.154Z,0.27
2018-12-31T04:05:38.355Z,0.10
2018-12-31T04:08:20.330Z,1.40
2018-12-31T04:11:02.574Z,2.57
2018-12-31T04:13:32.930Z,0.50
2018-12-31T04:16:23.734Z,0.00
2018-12-31T04:19:07.532Z,0.57
2018-12-31T04:21:49.194Z,0.30
2018-12-31T04:24:31.848Z,0.20
2018-12-31T04:27:14.239Z,0.40
2018-12-31T04:29:56.359Z,0.40
2018-12-31T04:32:26.706Z,0.33
2018-12-31T04:35:16.123Z,0.33
2018-12-31T04:37:59.629Z,0.30
2018-12-31T04:40:41.308Z,0.50
2018-12-31T04:43:23.058Z,0.23
2018-12-31T04:46:04.833Z,0.33
2018-12-31T04:48:47.204Z,0.17
2018-12-31T04:51:29.322Z,1.10
2018-12-31T04:54:11.011Z,0.37
2018-12-31T04:56:52.735Z,1.40
2018-12-31T04:59:34.620Z,3.93
2018-12-31T05:02:16.610Z,6.27
2018-12-31T05:04:59.166Z,3.13
2018-12-31T05:07:41.326Z,4.27
2018-12-31T05:10:23.867Z,2.40
2018-12-31T05:13:05.882Z,1.70
2018-12-31T05:15:47.582Z,2.00
2018-12-31T05:18:30.108Z,3.63
2018-12-31T05:21:11.882Z,4.03
2018-12-31T05:23:53.855Z,3.27
2018-12-31T05:26:35.462Z,1.67
2018-12-31T05:29:17.514Z,2.03
2018-12-31T05:31:59.540Z,3.53
2018-12-31T05:34:41.192Z,3.07
2018-12-31T05:37:25.211Z,3.67
2018-12-31T05:40:07.046Z,4.23
2018-12-31T05:42:49.486Z,3.53
2018-12-31T05:45:29.935Z,3.53
2018-12-31T05:48:19.355Z,2.30
2018-12-31T05:51:01.441Z,4.53
2018-12-31T05:53:43.612Z,2.93
2018-12-31T05:56:25.395Z,18.10
2018-12-31T05:59:07.097Z,6.10
2018-12-31T06:01:49.092Z,6.47
2018-12-31T06:04:30.983Z,5.70
2018-12-31T06:07:12.925Z,5.13
2018-12-31T06:09:55.342Z,7.93
2018-12-31T06:12:37.019Z,10.73
2018-12-31T06:15:26.388Z,14.83
2018-12-31T06:18:15.815Z,2.00
2018-12-31T06:20:59.506Z,2.37
2018-12-31T06:23:41.326Z,4.87
2018-12-31T06:26:23.330Z,3.93
2018-12-31T06:29:05.331Z,4.47
2018-12-31T06:31:47.226Z,5.90
2018-12-31T06:34:27.784Z,5.53
2018-12-31T06:37:17.198Z,4.83
2018-12-31T06:40:00.454Z,3.97
2018-12-31T06:42:42.170Z,6.03
2018-12-31T06:45:24.083Z,4.13
2018-12-31T06:48:05.961Z,4.80
2018-12-31T06:50:47.962Z,5.63
2018-12-31T06:53:30.041Z,6.00
2018-12-31T06:56:11.890Z,7.73
2018-12-31T06:58:55.666Z,40.93
2018-12-31T07:01:37.391Z,7.00
2018-12-31T07:04:19.403Z,6.33
2018-12-31T07:07:01.858Z,6.00
2018-12-31T07:09:43.703Z,5.03
2018-12-31T07:12:26.354Z,5.50
2018-12-31T07:14:56.641Z,4.97
2018-12-31T07:17:47.431Z,7.37
2018-12-31T07:23:27.537Z,7.87
2018-12-31T07:26:11.636Z,8.80
2018-12-31T07:28:53.559Z,13.30
2018-12-31T07:31:35.611Z,16.93
2018-12-31T07:34:17.826Z,14.40
2018-12-31T07:36:59.977Z,17.00
2018-12-31T07:39:42.511Z,14.53
2018-12-31T07:42:24.370Z,18.30
2018-12-31T07:45:06.134Z,18.23
2018-12-31T07:47:47.850Z,16.47
2018-12-31T07:50:29.551Z,20.13
2018-12-31T07:53:11.686Z,25.83
2018-12-31T07:55:42.083Z,26.83
2018-12-31T07:58:32.986Z,23.10
2018-12-31T08:01:16.693Z,20.83
2018-12-31T08:03:58.866Z,26.00
2018-12-31T08:06:40.442Z,22.93
2018-12-31T08:09:22.651Z,27.93
2018-12-31T08:12:04.354Z,28.27
2018-12-31T08:14:46.478Z,22.10
2018-12-31T08:17:28.371Z,22.63
2018-12-31T08:19:58.733Z,25.00
2018-12-31T08:22:49.610Z,22.50
2018-12-31T08:25:31.874Z,23.43
2018-12-31T08:28:13.874Z,26.40
2018-12-31T08:30:56.355Z,25.83
2018-12-31T08:33:38.301Z,27.33
2018-12-31T08:36:21.788Z,50.10
2018-12-31T08:39:04.654Z,36.33
2018-12-31T08:41:46.282Z,33.53
2018-12-31T08:44:28.688Z,30.13
2018-12-31T08:47:10.947Z,24.33
2018-12-31T08:49:52.947Z,23.37
2018-12-31T08:52:35.000Z,38.67
2018-12-31T08:55:16.814Z,74.80
2018-12-31T08:57:58.435Z,60.37
2018-12-31T09:00:40.479Z,52.70
2018-12-31T09:03:22.298Z,198.03
2018-12-31T09:06:04.306Z,131.07
2018-12-31T09:08:46.696Z,45.40
2018-12-31T09:11:28.839Z,28.03
2018-12-31T09:14:10.839Z,26.73
2018-12-31T09:16:53.093Z,22.63
2018-12-31T09:19:35.586Z,26.87
2018-12-31T09:22:17.650Z,41.30
2018-12-31T09:24:59.490Z,37.40
2018-12-31T09:27:41.611Z,39.00
2018-12-31T09:30:23.920Z,34.37
2018-12-31T09:33:06.081Z,28.13
2018-12-31T09:35:47.768Z,36.77
2018-12-31T09:38:29.694Z,85.30
2018-12-31T09:41:11.606Z,54.43
2018-12-31T09:43:53.627Z,44.80
2018-12-31T09:46:35.706Z,46.53
2018-12-31T09:49:17.610Z,30.03
2018-12-31T09:51:59.790Z,26.90
2018-12-31T09:54:42.091Z,40.00
2018-12-31T09:57:23.966Z,33.27
2018-12-31T10:00:05.766Z,34.97
2018-12-31T10:02:48.108Z,34.33
2018-12-31T10:05:30.438Z,39.33
2018-12-31T10:08:12.710Z,43.93
2018-12-31T10:10:54.712Z,40.17
2018-12-31T10:13:36.851Z,46.17
2018-12-31T10:16:19.027Z,66.87
2018-12-31T10:19:00.653Z,30.60
2018-12-31T10:21:43.114Z,46.37
2018-12-31T10:24:25.071Z,30.27
2018-12-31T10:27:07.379Z,25.17
2018-12-31T10:29:49.531Z,17.70
2018-12-31T10:32:31.601Z,22.27
2018-12-31T10:35:13.520Z,23.00
2018-12-31T10:37:55.570Z,23.20
2018-12-31T10:40:37.784Z,22.27
2018-12-31T10:43:19.782Z,21.87
2018-12-31T10:46:01.799Z,19.30
2018-12-31T10:48:43.836Z,15.90
2018-12-31T10:51:25.957Z,11.40
2018-12-31T10:54:08.064Z,13.40
2018-12-31T10:56:50.082Z,8.73
2018-12-31T10:59:20.350Z,8.77
2018-12-31T11:02:11.138Z,9.07
2018-12-31T11:04:54.490Z,7.00
2018-12-31T11:07:36.627Z,6.07
2018-12-31T11:10:19.279Z,7.33
2018-12-31T11:13:02.247Z,8.20
2018-12-31T11:15:42.674Z,5.83
2018-12-31T11:18:31.998Z,7.67
2018-12-31T11:21:14.131Z,7.00
2018-12-31T11:24:03.530Z,6.97
2018-12-31T11:26:47.319Z,6.83
2018-12-31T11:29:29.626Z,6.87
2018-12-31T11:32:11.798Z,11.90
2018-12-31T11:34:53.915Z,17.43
2018-12-31T11:37:35.922Z,15.93
2018-12-31T11:40:17.607Z,3.23
2018-12-31T11:42:59.205Z,10.27
2018-12-31T11:45:41.205Z,33.53
2018-12-31T11:48:22.954Z,3.50
2018-12-31T11:51:04.723Z,25.30
2018-12-31T11:53:47.034Z,7.20
2018-12-31T11:56:28.731Z,5.60
2018-12-31T11:59:10.690Z,2.30
2018-12-31T12:01:52.370Z,3.87
2018-12-31T12:04:34.951Z,5.27
2018-12-31T12:07:17.131Z,4.40
2018-12-31T12:09:59.597Z,4.23
2018-12-31T12:12:41.638Z,6.43
2018-12-31T12:15:23.394Z,8.43
2018-12-31T12:18:05.237Z,4.87
2018-12-31T12:20:47.426Z,13.13
2018-12-31T12:23:27.919Z,6.40
2018-12-31T12:26:17.469Z,5.40
2018-12-31T12:29:00.887Z,2.23
2018-12-31T12:31:42.758Z,2.20
2018-12-31T12:34:24.809Z,1.27
2018-12-31T12:37:06.586Z,1.40
2018-12-31T12:39:48.276Z,2.40
2018-12-31T12:42:30.027Z,0.97
2018-12-31T12:45:12.578Z,1.50
2018-12-31T12:47:54.579Z,0.70
2018-12-31T12:50:37.122Z,3.10
2018-12-31T12:53:18.915Z,6.20
2018-12-31T12:56:00.849Z,4.73
2018-12-31T12:58:42.643Z,2.37
2018-12-31T13:01:24.822Z,1.93
2018-12-31T13:04:06.751Z,1.40
2018-12-31T13:06:48.426Z,1.00
2018-12-31T13:09:30.230Z,2.07
2018-12-31T13:12:12.690Z,2.43
2018-12-31T13:14:54.514Z,4.13
2018-12-31T13:17:36.911Z,2.13
2018-12-31T13:20:19.730Z,3.57
2018-12-31T13:23:01.832Z,3.47
2018-12-31T13:25:43.567Z,3.63
2018-12-31T13:28:25.259Z,1.03
2018-12-31T13:31:08.169Z,1.63
2018-12-31T13:33:48.898Z,2.40
2018-12-31T13:36:38.305Z,0.90
2018-12-31T13:39:21.731Z,1.00
2018-12-31T13:42:03.711Z,1.17
2018-12-31T13:44:47.082Z,1.30
2018-12-31T13:47:29.154Z,2.00
2018-12-31T13:50:11.330Z,0.80
2018-12-31T13:52:53.394Z,1.77
2018-12-31T13:55:35.550Z,0.80
2018-12-31T13:58:17.950Z,0.90
2018-12-31T14:00:59.638Z,0.80
2018-12-31T14:03:41.595Z,1.40
2018-12-31T14:06:23.604Z,1.23
2018-12-31T14:09:05.541Z,0.80
2018-12-31T14:11:47.395Z,2.40
2018-12-31T14:14:29.429Z,0.60
2018-12-31T14:17:11.258Z,2.13
2018-12-31T14:19:53.438Z,1.20
2018-12-31T14:22:35.703Z,1.57
2018-12-31T14:25:17.746Z,1.27
2018-12-31T14:28:00.230Z,5.33
2018-12-31T14:30:41.870Z,3.60
2018-12-31T14:33:23.669Z,2.47
2018-12-31T14:36:05.402Z,0.97
2018-12-31T14:38:47.409Z,1.83
2018-12-31T14:41:30.194Z,1.43
2018-12-31T14:44:12.146Z,1.90
2018-12-31T14:46:52.658Z,4.40
2018-12-31T14:49:34.894Z,1.73
2018-12-31T14:52:16.914Z,1.50
2018-12-31T14:54:57.610Z,2.67
2018-12-31T14:57:47.012Z,3.13
2018-12-31T15:00:30.806Z,3.03
2018-12-31T15:03:12.690Z,9.07
2018-12-31T15:05:54.605Z,25.60
2018-12-31T15:08:36.730Z,10.13
2018-12-31T15:11:19.050Z,46.83
2018-12-31T15:14:00.883Z,24.40
2018-12-31T15:16:42.882Z,4.77
2018-12-31T15:19:24.795Z,4.27
2018-12-31T15:22:07.234Z,6.07
2018-12-31T15:24:49.026Z,8.00
2018-12-31T15:27:30.998Z,7.47
2018-12-31T15:30:13.434Z,4.57
2018-12-31T15:32:55.734Z,6.30
2018-12-31T15:35:38.352Z,6.23
2018-12-31T15:38:20.470Z,7.10
2018-12-31T15:41:03.519Z,8.10
2018-12-31T15:43:45.190Z,9.80
2018-12-31T15:46:27.674Z,11.00
2018-12-31T15:49:09.527Z,9.57
2018-12-31T15:51:52.010Z,11.10
2018-12-31T15:54:34.218Z,10.77
2018-12-31T15:57:16.311Z,9.67
2018-12-31T15:59:58.335Z,7.70
2018-12-31T16:02:40.586Z,10.40
2018-12-31T16:05:22.370Z,72.70
2018-12-31T16:08:04.174Z,152.97
2018-12-31T16:10:46.643Z,95.93
2018-12-31T16:13:29.078Z,77.80
2018-12-31T16:16:10.931Z,25.80
2018-12-31T16:18:53.329Z,11.27
2018-12-31T16:21:35.683Z,9.60
2018-12-31T16:24:18.606Z,12.03
2018-12-31T16:27:00.450Z,7.03
2018-12-31T16:29:42.536Z,7.93
2018-12-31T16:32:25.161Z,12.80
2018-12-31T16:35:07.761Z,57.57
2018-12-31T16:37:49.997Z,132.67
2018-12-31T16:40:32.098Z,71.10
2018-12-31T16:43:14.602Z,40.30
2018-12-31T16:45:56.510Z,39.43
2018-12-31T16:48:38.735Z,42.90
2018-12-31T16:51:20.783Z,48.10
2018-12-31T16:54:02.758Z,54.07
2018-12-31T16:56:45.266Z,43.13
2018-12-31T16:59:27.053Z,32.90
2018-12-31T17:02:09.043Z,22.40
2018-12-31T17:04:51.012Z,37.07
2018-12-31T17:07:32.935Z,134.80
2018-12-31T17:10:15.118Z,79.07
2018-12-31T17:12:56.938Z,42.57
2018-12-31T17:15:38.755Z,145.20
2018-12-31T17:18:20.462Z,163.57
2018-12-31T17:21:03.016Z,67.47
2018-12-31T17:23:45.346Z,23.53
2018-12-31T17:26:27.574Z,25.90
2018-12-31T17:29:09.594Z,40.73
2018-12-31T17:31:51.949Z,36.10
2018-12-31T17:34:34.758Z,33.33
2018-12-31T17:37:17.206Z,43.23
2018-12-31T17:39:59.670Z,31.97
2018-12-31T17:42:41.814Z,32.60
2018-12-31T17:45:23.827Z,33.37
2018-12-31T17:48:05.906Z,43.37
2018-12-31T17:50:48.399Z,34.77
2018-12-31T17:53:30.499Z,33.03
2018-12-31T17:56:12.589Z,27.97
2018-12-31T17:58:54.538Z,29.63
2018-12-31T18:01:36.399Z,41.40
2018-12-31T18:04:18.743Z,30.93
2018-12-31T18:07:01.206Z,26.80
2018-12-31T18:09:44.030Z,155.53
2018-12-31T18:12:26.354Z,272.27
2018-12-31T18:15:09.111Z,63.97
2018-12-31T18:17:51.550Z,77.90
2018-12-31T18:20:33.470Z,128.23
2018-12-31T18:23:15.222Z,140.27
2018-12-31T18:25:57.142Z,81.67
2018-12-31T18:28:39.515Z,48.63
2018-12-31T18:31:21.513Z,50.30
2018-12-31T18:34:04.022Z,30.27
2018-12-31T18:36:46.074Z,31.53
2018-12-31T18:39:28.098Z,34.63
2018-12-31T18:42:10.876Z,49.67
2018-12-31T18:44:53.090Z,68.23
2018-12-31T18:47:35.148Z,61.60
2018-12-31T18:50:16.774Z,69.70
2018-12-31T18:52:58.762Z,29.50
2018-12-31T18:55:41.097Z,67.30
2018-12-31T18:58:24.200Z,66.20
2018-12-31T19:01:06.371Z,89.80
2018-12-31T19:03:48.562Z,32.67
2018-12-31T19:06:31.226Z,27.10
2018-12-31T19:09:13.827Z,26.00
2018-12-31T19:11:55.734Z,28.70
2018-12-31T19:14:37.853Z,26.10
2018-12-31T19:17:20.376Z,39.80
2018-12-31T19:20:02.134Z,40.33
2018-12-31T19:22:44.830Z,55.90
2018-12-31T19:25:26.890Z,28.80
2018-12-31T19:28:09.378Z,30.93
2018-12-31T19:30:52.009Z,33.83
2018-12-31T19:33:33.863Z,33.17
2018-12-31T19:36:15.712Z,32.60
2018-12-31T19:38:57.877Z,50.40
2018-12-31T19:41:39.758Z,39.13
2018-12-31T19:44:21.995Z,52.70
2018-12-31T19:47:03.904Z,39.77
2018-12-31T19:49:45.706Z,42.43
2018-12-31T19:52:27.604Z,42.33
2018-12-31T19:55:09.705Z,39.23
2018-12-31T19:57:51.654Z,39.37
2018-12-31T20:00:34.247Z,39.87
2018-12-31T20:03:16.635Z,33.53
2018-12-31T20:05:59.339Z,37.70
2018-12-31T20:08:41.972Z,35.83
2018-12-31T20:11:24.135Z,37.33
2018-12-31T20:14:06.307Z,45.40
2018-12-31T20:16:48.233Z,51.73
2018-12-31T20:19:30.376Z,38.90
2018-12-31T20:22:12.358Z,34.33
2018-12-31T20:24:54.127Z,33.03
2018-12-31T20:27:36.002Z,28.23
2018-12-31T20:30:18.210Z,30.50
2018-12-31T20:33:00.279Z,25.80
2018-12-31T20:35:42.194Z,30.53
2018-12-31T20:38:24.062Z,33.70
2018-12-31T20:41:06.454Z,35.47
2018-12-31T20:43:48.450Z,42.30
2018-12-31T20:46:30.346Z,41.53
2018-12-31T20:49:12.185Z,49.20
2018-12-31T20:51:54.163Z,25.80
2018-12-31T20:54:36.107Z,28.73
2018-12-31T20:57:18.939Z,30.00
2018-12-31T21:00:01.006Z,34.10
2018-12-31T21:02:42.825Z,34.87
2018-12-31T21:05:24.990Z,36.63
2018-12-31T21:08:05.478Z,34.83
2018-12-31T21:13:55.524Z,34.03
2018-12-31T21:16:39.234Z,35.93
2018-12-31T21:19:21.231Z,34.80
2018-12-31T21:22:04.211Z,40.17
2018-12-31T21:24:45.935Z,43.90
2018-12-31T21:27:27.927Z,39.50
2018-12-31T21:30:10.343Z,55.60
2018-12-31T21:32:52.911Z,72.97
2018-12-31T21:35:35.011Z,65.23
2018-12-31T21:38:17.117Z,47.70
2018-12-31T21:40:59.262Z,39.80
2018-12-31T21:43:41.921Z,30.00
2018-12-31T21:46:23.795Z,31.07
2018-12-31T21:49:05.569Z,35.37
2018-12-31T21:51:47.626Z,34.77
2018-12-31T21:54:29.902Z,31.80
2018-12-31T21:57:11.962Z,33.30
2018-12-31T21:59:54.026Z,31.73
2018-12-31T22:02:35.643Z,33.60
2018-12-31T22:05:17.470Z,34.27
2018-12-31T22:07:59.621Z,38.03
2018-12-31T22:10:41.446Z,44.43
2018-12-31T22:13:23.771Z,59.10
2018-12-31T22:16:07.319Z,45.03
2018-12-31T22:18:49.030Z,34.43
2018-12-31T22:21:31.222Z,28.40
2018-12-31T22:24:12.810Z,27.53
2018-12-31T22:26:55.019Z,28.43
2018-12-31T22:29:37.270Z,31.67
2018-12-31T22:32:19.542Z,28.47
2018-12-31T22:35:01.600Z,32.93
2018-12-31T22:37:43.809Z,31.67
2018-12-31T22:40:26.260Z,31.27
2018-12-31T22:43:09.499Z,34.27
2018-12-31T22:45:51.466Z,31.93
2018-12-31T22:48:33.556Z,31.57
2018-12-31T22:51:15.543Z,30.70
2018-12-31T22:53:57.366Z,45.30
2018-12-31T22:56:39.283Z,77.80
2018-12-31T22:59:21.234Z,77.13
2018-12-31T23:02:03.390Z,149.47
2018-12-31T23:04:45.275Z,449.83
2018-12-31T23:07:27.354Z,277.87
2018-12-31T23:10:09.569Z,156.60
2018-12-31T23:12:51.930Z,97.53
2018-12-31T23:15:33.497Z,113.00
2018-12-31T23:18:22.914Z,129.13
2018-12-31T23:21:06.796Z,130.80
2018-12-31T23:23:48.533Z,135.40
2018-12-31T23:26:30.531Z,122.87
2018-12-31T23:29:12.578Z,122.43
2018-12-31T23:31:54.516Z,89.03
2018-12-31T23:34:36.450Z,74.43
2018-12-31T23:37:18.369Z,87.50
2018-12-31T23:40:00.009Z,96.17
2018-12-31T23:42:41.936Z,85.50
2018-12-31T23:45:23.754Z,122.23
2018-12-31T23:48:06.594Z,77.27
2018-12-31T23:50:48.914Z,58.80
2018-12-31T23:53:30.842Z,52.37
2018-12-31T23:56:13.266Z,48.80
2018-12-31T23:58:54.976Z,45.83
